Stolt Surf — ZCSR3 — position and weather

sailwx.info

Track history (hours):
 
Tides and Currents Weather Stations Pressure Air Temp Water Temp Dewpoint Dewpoint Depression Visibility Wind Speed Wind Dir Waves Ship Positions

Stolt Surf

Last reported at 2014-Nov-06 15:04 UTC. Time now 2014-Nov-28 13:28 UTC.
Position N 34°60' E 139°41'.
Warning: this ship's position is 21 days out of date.

Length 163 m; draft 10.4 m.

Type: Ship. MMSI: 319545000.

Date/timePositionNaut miles runAvg speedWind from/ knotsBaromVisibWave heightAir tempDewpointWater temp
2014-Nov-06 15:04N 34°60' E 139°41'713.7
2014-Nov-06 14:33N 35°06' E 139°44'1211.9
2014-Nov-06 13:33N 35°18' E 139°44'5 4.6
2014-Nov-06 12:31N 35°22' E 139°41'0 0.0
2014-Nov-06 11:31N 35°22' E 139°41'0 0.0
2014-Nov-06 10:31N 35°22' E 139°41'0 0.0
2014-Nov-06 09:28N 35°22' E 139°41'0 0.1
2014-Nov-06 08:31N 35°22' E 139°41'0 0.0
2014-Nov-06 07:25N 35°22' E 139°41'0 0.0
2014-Nov-06 06:31N 35°22' E 139°41'0 0.1
2014-Nov-06 05:31N 35°22' E 139°41'0 0.0
2014-Nov-06 04:31N 35°22' E 139°41'0 0.0
2014-Nov-06 03:31N 35°22' E 139°41'0 0.1
2014-Nov-06 02:31N 35°22' E 139°41'8 8.0
2014-Nov-06 01:33N 35°16' E 139°46'11 7.7
2014-Nov-06 00:07N 35°05' E 139°46'  
2014-Nov-01 04:23N 29°38' E 122°35'1011.4
2014-Nov-01 03:33N 29°42' E 122°25'1212.1
2014-Nov-01 02:33N 29°49' E 122°13'1413.6
2014-Nov-01 01:33N 29°56' E 122°00'9 0.5
2014-Oct-31 06:26N 29°59' E 121°50'6 0.1
2014-Oct-29 07:08N 29°57' E 121°57'1 2.1
2014-Oct-29 06:33N 29°58' E 121°58'1313.0
2014-Oct-29 05:34N 29°52' E 122°12'1110.6
2014-Oct-29 04:33N 29°45' E 122°21'10 9.9
2014-Oct-29 03:32N 29°46' E 122°33'  
Track history (hours):
 
Tides and Currents Weather Stations Pressure Air Temp Water Temp Dewpoint Dewpoint Depression Visibility Wind Speed Wind Dir Waves Ship Positions

Stolt Surf

Last reported at 2014-Nov-06 15:04 UTC. Time now 2014-Nov-28 13:28 UTC.
Position N 34°60' E 139°41'.
Warning: this ship's position is 21 days out of date.

Length 163 m; draft 10.4 m.

Type: Ship. MMSI: 319545000.

Date/timePositionNaut miles runAvg speedWind from/ knotsBaromVisibWave heightAir tempDewpointWater temp
2014-Nov-06 15:04N 34°60' E 139°41'713.7
2014-Nov-06 14:33N 35°06' E 139°44'1211.9
2014-Nov-06 13:33N 35°18' E 139°44'5 4.6
2014-Nov-06 12:31N 35°22' E 139°41'0 0.0
2014-Nov-06 11:31N 35°22' E 139°41'0 0.0
2014-Nov-06 10:31N 35°22' E 139°41'0 0.0
2014-Nov-06 09:28N 35°22' E 139°41'0 0.1
2014-Nov-06 08:31N 35°22' E 139°41'0 0.0
2014-Nov-06 07:25N 35°22' E 139°41'0 0.0
2014-Nov-06 06:31N 35°22' E 139°41'0 0.1
2014-Nov-06 05:31N 35°22' E 139°41'0 0.0
2014-Nov-06 04:31N 35°22' E 139°41'0 0.0
2014-Nov-06 03:31N 35°22' E 139°41'0 0.1
2014-Nov-06 02:31N 35°22' E 139°41'8 8.0
2014-Nov-06 01:33N 35°16' E 139°46'11 7.7
2014-Nov-06 00:07N 35°05' E 139°46'  
2014-Nov-01 04:23N 29°38' E 122°35'1011.4
2014-Nov-01 03:33N 29°42' E 122°25'1212.1
2014-Nov-01 02:33N 29°49' E 122°13'1413.6
2014-Nov-01 01:33N 29°56' E 122°00'9 0.5
2014-Oct-31 06:26N 29°59' E 121°50'6 0.1
2014-Oct-29 07:08N 29°57' E 121°57'1 2.1
2014-Oct-29 06:33N 29°58' E 121°58'1313.0
2014-Oct-29 05:34N 29°52' E 122°12'1110.6
2014-Oct-29 04:33N 29°45' E 122°21'10 9.9
2014-Oct-29 03:32N 29°46' E 122°33'  

Dump ship's entire track history